createdAt,value
2019-05-21T00:00:54.753Z,70.00
2019-05-21T00:03:42.575Z,69.90
2019-05-21T00:06:30.168Z,71.67
2019-05-21T00:09:18.142Z,63.43
2019-05-21T00:12:06.148Z,67.13
2019-05-21T00:14:54.349Z,66.73
2019-05-21T00:17:42.253Z,66.10
2019-05-21T00:20:29.860Z,66.23
2019-05-21T00:23:17.477Z,70.50
2019-05-21T00:26:05.329Z,66.10
2019-05-21T00:29:29.706Z,66.70
2019-05-21T00:32:53.781Z,68.60
2019-05-21T00:36:19.048Z,74.13
2019-05-21T00:39:43.627Z,70.47
2019-05-21T00:42:34.729Z,68.30
2019-05-21T00:45:22.776Z,72.87
2019-05-21T00:48:10.564Z,74.57
2019-05-21T00:50:58.280Z,75.23
2019-05-21T00:53:45.996Z,71.77
2019-05-21T00:56:33.818Z,66.73
2019-05-21T00:59:21.476Z,71.13
2019-05-21T01:02:09.477Z,71.93
2019-05-21T01:05:00.573Z,73.07
2019-05-21T01:07:46.726Z,69.17
2019-05-21T01:10:34.624Z,74.60
2019-05-21T01:13:22.519Z,69.87
2019-05-21T01:16:10.482Z,65.93
2019-05-21T01:18:58.440Z,67.60
2019-05-21T01:21:46.419Z,67.13
2019-05-21T01:24:34.309Z,65.97
2019-05-21T01:27:22.021Z,63.30
2019-05-21T01:30:10.148Z,62.00
2019-05-21T01:32:57.677Z,60.17
2019-05-21T01:35:45.643Z,55.87
2019-05-21T01:38:33.635Z,55.03
2019-05-21T01:41:21.621Z,62.63
2019-05-21T01:44:09.268Z,60.03
2019-05-21T01:46:57.270Z,57.43
2019-05-21T01:49:45.093Z,60.87
2019-05-21T01:52:33.188Z,58.80
2019-05-21T01:55:21.060Z,56.23
2019-05-21T01:58:08.984Z,52.77
2019-05-21T02:00:56.616Z,54.87
2019-05-21T02:03:44.828Z,50.60
2019-05-21T02:06:32.496Z,57.80
2019-05-21T02:09:20.113Z,56.03
2019-05-21T02:12:10.782Z,51.37
2019-05-21T02:14:57.450Z,51.23
2019-05-21T02:17:45.170Z,52.63
2019-05-21T02:20:32.948Z,58.80
2019-05-21T02:23:20.890Z,57.47
2019-05-21T02:26:09.146Z,52.80
2019-05-21T02:28:56.977Z,48.93
2019-05-21T02:31:44.794Z,48.70
2019-05-21T02:34:32.530Z,50.37
2019-05-21T02:37:20.510Z,51.13
2019-05-21T02:40:11.000Z,47.20
2019-05-21T02:42:58.680Z,45.87
2019-05-21T02:45:46.393Z,46.73
2019-05-21T02:48:34.454Z,52.43
2019-05-21T02:51:22.190Z,47.03
2019-05-21T02:54:09.743Z,49.30
2019-05-21T02:56:57.726Z,46.97
2019-05-21T02:59:47.416Z,43.37
2019-05-21T03:02:41.472Z,45.63
2019-05-21T03:05:29.676Z,47.00
2019-05-21T03:08:17.441Z,45.93
2019-05-21T03:11:05.244Z,44.30
2019-05-21T03:13:52.949Z,44.63
2019-05-21T03:16:41.005Z,48.10
2019-05-21T03:19:28.646Z,45.93
2019-05-21T03:22:16.721Z,42.50
2019-05-21T03:25:06.060Z,46.67
2019-05-21T03:27:53.627Z,42.37
2019-05-21T03:30:41.506Z,42.87
2019-05-21T03:33:29.149Z,39.80
2019-05-21T03:36:31.658Z,40.37
2019-05-21T03:39:06.498Z,37.83
2019-05-21T03:41:54.315Z,41.10
2019-05-21T03:44:58.249Z,34.57
2019-05-21T03:47:31.630Z,35.87
2019-05-21T03:50:19.551Z,37.03
2019-05-21T03:53:07.774Z,36.60
2019-05-21T03:55:55.604Z,41.23
2019-05-21T03:58:43.386Z,36.20
2019-05-21T04:01:31.040Z,33.37
2019-05-21T04:04:19.132Z,36.47
2019-05-21T04:07:06.715Z,33.53
2019-05-21T04:09:54.617Z,29.50
2019-05-21T04:12:42.692Z,34.17
2019-05-21T04:15:30.636Z,34.13
2019-05-21T04:18:19.836Z,31.90
2019-05-21T04:21:07.541Z,31.57
2019-05-21T04:23:55.382Z,34.93
2019-05-21T04:26:43.439Z,35.70
2019-05-21T04:29:31.397Z,33.37
2019-05-21T04:32:19.340Z,34.17
2019-05-21T04:35:07.318Z,34.33
2019-05-21T04:37:55.376Z,36.37
2019-05-21T04:40:43.277Z,33.10
2019-05-21T04:43:31.269Z,30.33
2019-05-21T04:46:19.217Z,29.07
2019-05-21T04:49:07.174Z,30.87
2019-05-21T04:51:54.928Z,30.87
2019-05-21T04:54:42.560Z,31.80
2019-05-21T04:57:30.466Z,29.97
2019-05-21T05:00:18.619Z,29.43
2019-05-21T05:03:06.153Z,26.63
2019-05-21T05:05:54.001Z,28.27
2019-05-21T05:08:41.912Z,28.33
2019-05-21T05:11:29.773Z,28.00
2019-05-21T05:14:17.336Z,27.77
2019-05-21T05:17:05.282Z,28.43
2019-05-21T05:19:53.108Z,27.70
2019-05-21T05:22:41.015Z,31.13
2019-05-21T05:25:28.940Z,29.83
2019-05-21T05:28:16.616Z,25.90
2019-05-21T05:31:04.680Z,27.47
2019-05-21T05:33:52.788Z,25.30
2019-05-21T05:36:40.699Z,22.53
2019-05-21T05:39:32.178Z,23.83
2019-05-21T05:42:19.953Z,20.03
2019-05-21T05:45:08.919Z,19.27
2019-05-21T05:47:56.684Z,22.13
2019-05-21T05:50:51.906Z,17.67
2019-05-21T05:53:58.205Z,16.97
2019-05-21T05:56:46.354Z,17.80
2019-05-21T05:59:34.157Z,18.83
2019-05-21T06:02:22.090Z,17.23
2019-05-21T06:05:10.954Z,15.90
2019-05-21T06:08:00.352Z,15.80
2019-05-21T06:10:48.417Z,14.90
2019-05-21T06:13:36.127Z,13.10
2019-05-21T06:16:24.004Z,11.87
2019-05-21T06:19:12.083Z,13.07
2019-05-21T06:21:59.742Z,11.87
2019-05-21T06:24:47.628Z,11.23
2019-05-21T06:27:35.733Z,8.50
2019-05-21T06:30:23.732Z,11.17
2019-05-21T06:33:11.699Z,10.83
2019-05-21T06:35:59.531Z,9.90
2019-05-21T06:38:47.429Z,8.33
2019-05-21T06:41:35.350Z,9.70
2019-05-21T06:44:22.912Z,7.77
2019-05-21T06:47:10.868Z,9.10
2019-05-21T06:49:58.965Z,9.80
2019-05-21T06:52:47.164Z,6.90
2019-05-21T06:55:35.006Z,6.80
2019-05-21T06:58:22.995Z,7.37
2019-05-21T07:01:10.924Z,6.93
2019-05-21T07:03:58.763Z,6.70
2019-05-21T07:06:46.445Z,7.57
2019-05-21T07:09:34.282Z,6.13
2019-05-21T07:12:22.397Z,4.93
2019-05-21T07:15:10.683Z,6.23
2019-05-21T07:17:58.497Z,4.27
2019-05-21T07:20:46.346Z,4.80
2019-05-21T07:23:34.280Z,4.57
2019-05-21T07:26:22.099Z,4.97
2019-05-21T07:29:09.913Z,7.23
2019-05-21T07:31:57.975Z,5.57
2019-05-21T07:34:45.929Z,5.10
2019-05-21T07:37:34.098Z,5.40
2019-05-21T07:40:21.732Z,4.03
2019-05-21T07:43:09.504Z,4.53
2019-05-21T07:45:57.298Z,4.57
2019-05-21T07:48:44.901Z,5.33
2019-05-21T07:51:32.501Z,4.70
2019-05-21T07:54:20.180Z,4.03
2019-05-21T07:57:07.965Z,4.80
2019-05-21T07:59:55.421Z,3.50
2019-05-21T08:02:42.897Z,4.90
2019-05-21T08:05:30.830Z,3.63
2019-05-21T08:08:18.668Z,4.70
2019-05-21T08:11:06.519Z,5.40
2019-05-21T08:13:54.525Z,5.53
2019-05-21T08:16:42.663Z,4.83
2019-05-21T08:19:31.416Z,5.63
2019-05-21T08:22:19.232Z,4.40
2019-05-21T08:25:07.654Z,6.20
2019-05-21T08:27:55.365Z,4.97
2019-05-21T08:30:43.328Z,6.30
2019-05-21T08:33:31.207Z,5.87
2019-05-21T08:36:19.088Z,5.73
2019-05-21T08:39:07.849Z,5.80
2019-05-21T08:41:55.777Z,4.47
2019-05-21T08:44:43.767Z,5.47
2019-05-21T08:47:31.494Z,4.93
2019-05-21T08:50:19.632Z,6.43
2019-05-21T08:53:07.319Z,5.17
2019-05-21T08:55:55.101Z,4.13
2019-05-21T08:58:43.048Z,4.80
2019-05-21T09:01:30.973Z,5.93
2019-05-21T09:04:18.744Z,4.53
2019-05-21T09:07:06.669Z,5.00
2019-05-21T09:09:54.681Z,6.27
2019-05-21T09:12:42.401Z,6.03
2019-05-21T09:15:30.434Z,4.53
2019-05-21T09:18:18.288Z,3.90
2019-05-21T09:21:05.908Z,6.83
2019-05-21T09:23:53.575Z,4.70
2019-05-21T09:26:41.634Z,6.77
2019-05-21T09:29:29.376Z,6.23
2019-05-21T09:32:17.110Z,7.37
2019-05-21T09:35:07.649Z,6.63
2019-05-21T09:37:55.400Z,6.87
2019-05-21T09:40:43.037Z,8.87
2019-05-21T09:43:30.881Z,7.63
2019-05-21T09:46:18.700Z,6.77
2019-05-21T09:49:06.228Z,7.30
2019-05-21T09:51:54.061Z,6.57
2019-05-21T09:54:41.944Z,6.87
2019-05-21T09:57:34.479Z,5.57
2019-05-21T10:00:36.636Z,6.53
2019-05-21T10:03:26.441Z,6.07
2019-05-21T10:06:14.504Z,6.57
2019-05-21T10:09:03.451Z,5.67
2019-05-21T10:11:51.344Z,6.77
2019-05-21T10:14:38.913Z,8.10
2019-05-21T10:17:26.710Z,9.70
2019-05-21T10:20:14.860Z,11.33
2019-05-21T10:23:02.647Z,6.50
2019-05-21T10:25:50.292Z,6.10
2019-05-21T10:28:38.496Z,6.23
2019-05-21T10:31:26.305Z,7.33
2019-05-21T10:34:14.179Z,7.30
2019-05-21T10:37:01.942Z,6.77
2019-05-21T10:39:50.092Z,6.73
2019-05-21T10:42:38.018Z,26.77
2019-05-21T10:45:26.021Z,17.57
2019-05-21T10:48:13.883Z,6.67
2019-05-21T10:51:02.161Z,5.97
2019-05-21T10:53:49.737Z,8.63
2019-05-21T10:56:47.563Z,5.70
2019-05-21T10:59:27.270Z,6.40
2019-05-21T11:02:25.952Z,6.70
2019-05-21T11:05:19.264Z,7.13
2019-05-21T11:08:24.818Z,9.33
2019-05-21T11:10:57.821Z,6.53
2019-05-21T11:13:45.762Z,5.57
2019-05-21T11:16:33.656Z,6.27
2019-05-21T11:19:21.439Z,4.97
2019-05-21T11:22:09.402Z,5.23
2019-05-21T11:24:57.180Z,4.00
2019-05-21T11:27:45.159Z,5.07
2019-05-21T11:30:32.888Z,4.00
2019-05-21T11:33:20.636Z,3.80
2019-05-21T11:36:08.581Z,4.93
2019-05-21T11:38:56.419Z,5.03
2019-05-21T11:41:44.045Z,6.20
2019-05-21T11:44:31.797Z,5.50
2019-05-21T11:47:19.926Z,5.27
2019-05-21T11:50:09.667Z,7.37
2019-05-21T11:52:57.323Z,6.00
2019-05-21T11:55:45.008Z,6.30
2019-05-21T11:58:39.312Z,5.47
2019-05-21T12:01:22.204Z,5.33
2019-05-21T12:04:09.766Z,5.87
2019-05-21T12:06:57.593Z,5.70
2019-05-21T12:09:45.362Z,5.50
2019-05-21T12:12:33.392Z,5.73
2019-05-21T12:15:20.980Z,6.60
2019-05-21T12:18:08.576Z,5.83
2019-05-21T12:20:56.559Z,6.83
2019-05-21T12:23:44.457Z,8.23
2019-05-21T12:26:31.960Z,4.77
2019-05-21T12:29:19.645Z,5.87
2019-05-21T12:32:07.449Z,4.57
2019-05-21T12:34:55.096Z,5.17
2019-05-21T12:37:42.822Z,3.87
2019-05-21T12:40:30.612Z,4.30
2019-05-21T12:43:18.694Z,3.80
2019-05-21T12:46:06.618Z,6.00
2019-05-21T12:48:54.279Z,4.23
2019-05-21T12:51:42.360Z,4.50
2019-05-21T12:54:30.497Z,4.43
2019-05-21T12:57:18.079Z,4.93
2019-05-21T13:00:10.841Z,4.53
2019-05-21T13:02:58.353Z,6.50
2019-05-21T13:05:46.414Z,6.13
2019-05-21T13:08:34.245Z,6.97
2019-05-21T13:11:21.878Z,7.73
2019-05-21T13:14:13.929Z,6.73
2019-05-21T13:16:59.757Z,6.97
2019-05-21T13:19:47.622Z,8.43
2019-05-21T13:22:35.629Z,6.63
2019-05-21T13:25:23.565Z,7.17
2019-05-21T13:28:11.069Z,5.43
2019-05-21T13:30:58.757Z,6.50
2019-05-21T13:33:46.436Z,6.27
2019-05-21T13:36:34.217Z,6.63
2019-05-21T13:39:25.503Z,6.13
2019-05-21T13:42:12.178Z,6.87
2019-05-21T13:44:59.889Z,7.60
2019-05-21T13:47:47.739Z,7.87
2019-05-21T13:50:35.610Z,8.10
2019-05-21T13:53:23.389Z,7.73
2019-05-21T13:56:11.132Z,10.00
2019-05-21T13:58:58.838Z,6.73
2019-05-21T14:01:46.604Z,6.63
2019-05-21T14:04:34.983Z,5.90
2019-05-21T14:07:22.773Z,7.00
2019-05-21T14:10:16.283Z,7.93
2019-05-21T14:13:01.287Z,13.67
2019-05-21T14:15:49.017Z,16.67
2019-05-21T14:18:40.007Z,13.20
2019-05-21T14:21:28.020Z,12.00
2019-05-21T14:24:15.740Z,8.97
2019-05-21T14:27:03.157Z,7.70
2019-05-21T14:29:51.052Z,6.80
2019-05-21T14:32:38.768Z,7.90
2019-05-21T14:35:26.349Z,8.13
2019-05-21T14:38:13.982Z,8.70
2019-05-21T14:41:01.891Z,7.70
2019-05-21T14:43:49.612Z,6.93
2019-05-21T14:46:37.302Z,9.60
2019-05-21T14:49:25.054Z,7.73
2019-05-21T14:52:12.900Z,6.20
2019-05-21T14:55:00.956Z,9.47
2019-05-21T14:57:48.661Z,8.67
2019-05-21T15:00:37.706Z,8.43
2019-05-21T15:03:25.807Z,6.43
2019-05-21T15:06:13.700Z,6.00
2019-05-21T15:09:01.480Z,7.53
2019-05-21T15:11:49.343Z,7.10
2019-05-21T15:14:37.172Z,6.67
2019-05-21T15:17:25.174Z,7.17
2019-05-21T15:20:15.228Z,6.73
2019-05-21T15:23:03.616Z,7.53
2019-05-21T15:25:51.286Z,9.10
2019-05-21T15:28:39.408Z,7.80
2019-05-21T15:31:27.310Z,8.90
2019-05-21T15:34:15.259Z,10.10
2019-05-21T15:37:03.482Z,6.43
2019-05-21T15:39:51.580Z,9.17
2019-05-21T15:42:39.498Z,7.00
2019-05-21T15:45:27.190Z,6.63
2019-05-21T15:48:14.907Z,6.13
2019-05-21T15:51:03.041Z,7.50
2019-05-21T15:53:50.642Z,8.73
2019-05-21T15:56:38.672Z,8.77
2019-05-21T15:59:26.313Z,6.23
2019-05-21T16:02:14.409Z,7.67
2019-05-21T16:05:01.969Z,12.13
2019-05-21T16:07:49.925Z,11.40
2019-05-21T16:10:37.816Z,12.37
2019-05-21T16:13:25.881Z,8.97
2019-05-21T16:16:13.723Z,8.50
2019-05-21T16:19:01.453Z,9.43
2019-05-21T16:21:49.254Z,8.17
2019-05-21T16:24:37.201Z,9.50
2019-05-21T16:27:25.061Z,7.97
2019-05-21T16:30:13.601Z,10.53
2019-05-21T16:33:01.208Z,8.20
2019-05-21T16:35:49.313Z,10.00
2019-05-21T16:38:37.177Z,10.03
2019-05-21T16:41:25.088Z,8.87
2019-05-21T16:44:12.901Z,8.00
2019-05-21T16:47:00.489Z,8.07
2019-05-21T16:49:48.645Z,7.70
2019-05-21T16:52:36.337Z,7.20
2019-05-21T16:55:24.103Z,8.03
2019-05-21T16:58:12.185Z,6.60
2019-05-21T17:01:00.470Z,8.60
2019-05-21T17:03:59.406Z,6.17
2019-05-21T17:06:37.265Z,5.53
2019-05-21T17:09:28.126Z,6.80
2019-05-21T17:12:15.232Z,5.87
2019-05-21T17:15:03.464Z,5.60
2019-05-21T17:17:51.072Z,6.63
2019-05-21T17:20:38.733Z,6.37
2019-05-21T17:23:26.344Z,7.57
2019-05-21T17:26:14.217Z,7.57
2019-05-21T17:29:03.692Z,9.23
2019-05-21T17:31:51.400Z,12.13
2019-05-21T17:34:39.528Z,11.67
2019-05-21T17:37:27.408Z,8.57
2019-05-21T17:40:15.542Z,10.13
2019-05-21T17:43:03.574Z,8.80
2019-05-21T17:45:51.298Z,8.57
2019-05-21T17:48:39.028Z,15.27
2019-05-21T17:51:26.637Z,8.50
2019-05-21T17:54:14.568Z,15.03
2019-05-21T17:57:02.392Z,8.23
2019-05-21T17:59:50.402Z,7.23
2019-05-21T18:02:39.222Z,7.30
2019-05-21T18:05:27.419Z,11.40
2019-05-21T18:08:17.216Z,7.53
2019-05-21T18:11:05.617Z,7.87
2019-05-21T18:13:53.700Z,11.37
2019-05-21T18:16:42.031Z,12.87
2019-05-21T18:19:30.161Z,12.33
2019-05-21T18:22:19.558Z,9.90
2019-05-21T18:25:08.253Z,9.80
2019-05-21T18:27:56.413Z,14.23
2019-05-21T18:30:44.801Z,9.07
2019-05-21T18:33:33.184Z,10.30
2019-05-21T18:36:20.749Z,11.53
2019-05-21T18:39:08.629Z,10.73
2019-05-21T18:41:56.283Z,10.43
2019-05-21T18:44:44.520Z,12.23
2019-05-21T18:47:32.522Z,14.50
2019-05-21T18:50:34.790Z,11.67
2019-05-21T18:53:10.351Z,10.20
2019-05-21T18:55:58.300Z,12.60
2019-05-21T18:58:46.425Z,12.80
2019-05-21T19:01:34.044Z,11.73
2019-05-21T19:04:21.972Z,19.40
2019-05-21T19:07:10.856Z,11.47
2019-05-21T19:10:01.013Z,13.83
2019-05-21T19:12:49.537Z,12.83
2019-05-21T19:15:37.144Z,12.37
2019-05-21T19:18:24.984Z,11.57
2019-05-21T19:21:12.988Z,14.13
2019-05-21T19:24:00.829Z,13.03
2019-05-21T19:26:48.774Z,14.23
2019-05-21T19:29:36.461Z,12.57
2019-05-21T19:32:24.420Z,14.07
2019-05-21T19:35:12.379Z,13.87
2019-05-21T19:38:00.232Z,14.97
2019-05-21T19:40:47.932Z,15.17
2019-05-21T19:43:36.088Z,14.57
2019-05-21T19:46:23.925Z,15.47
2019-05-21T19:49:11.643Z,14.37
2019-05-21T19:51:59.467Z,17.73
2019-05-21T19:54:47.856Z,17.70
2019-05-21T19:57:35.893Z,15.23
2019-05-21T20:00:24.101Z,16.90
2019-05-21T20:03:12.348Z,20.50
2019-05-21T20:06:00.736Z,21.17
2019-05-21T20:08:48.437Z,22.20
2019-05-21T20:11:36.993Z,25.80
2019-05-21T20:14:25.019Z,24.10
2019-05-21T20:17:14.655Z,23.17
2019-05-21T20:20:05.441Z,26.07
2019-05-21T20:22:53.454Z,28.83
2019-05-21T20:25:55.366Z,24.37
2019-05-21T20:28:32.300Z,26.53
2019-05-21T20:31:21.728Z,24.60
2019-05-21T20:34:11.716Z,26.10
2019-05-21T20:36:59.613Z,23.40
2019-05-21T20:39:48.614Z,23.17
2019-05-21T20:42:37.381Z,24.77
2019-05-21T20:45:25.297Z,25.47
2019-05-21T20:48:14.605Z,23.50
2019-05-21T20:51:04.089Z,23.10
2019-05-21T20:53:52.031Z,21.67
2019-05-21T20:56:40.005Z,21.67
2019-05-21T20:59:28.092Z,21.70
2019-05-21T21:02:16.822Z,23.73
2019-05-21T21:05:06.326Z,23.10
2019-05-21T21:07:54.358Z,22.87
2019-05-21T21:10:42.316Z,23.07
2019-05-21T21:13:30.358Z,22.73
2019-05-21T21:16:18.561Z,25.13
2019-05-21T21:19:06.120Z,21.50
2019-05-21T21:21:53.729Z,23.47
2019-05-21T21:24:41.798Z,24.30
2019-05-21T21:27:29.980Z,24.43
2019-05-21T21:30:18.255Z,23.07
2019-05-21T21:33:08.011Z,27.13
2019-05-21T21:35:56.176Z,28.43
2019-05-21T21:38:44.501Z,37.20
2019-05-21T21:41:33.085Z,26.47
2019-05-21T21:44:33.554Z,40.50
2019-05-21T21:47:12.368Z,36.33
2019-05-21T21:50:01.057Z,34.07
2019-05-21T21:52:49.960Z,23.80
2019-05-21T21:55:37.789Z,23.60
2019-05-21T21:58:25.621Z,22.10
2019-05-21T22:01:40.138Z,23.53
2019-05-21T22:04:32.048Z,25.53
2019-05-21T22:07:20.489Z,23.40
2019-05-21T22:10:09.430Z,23.93
2019-05-21T22:12:57.173Z,25.10
2019-05-21T22:15:46.905Z,24.80
2019-05-21T22:18:34.827Z,25.43
2019-05-21T22:21:23.129Z,25.73
2019-05-21T22:24:11.725Z,25.77
2019-05-21T22:26:59.332Z,26.40
2019-05-21T22:29:47.084Z,22.53
2019-05-21T22:32:35.045Z,25.10
2019-05-21T22:35:22.710Z,24.23
2019-05-21T22:38:11.048Z,24.63
2019-05-21T22:40:58.773Z,24.60
2019-05-21T22:43:46.921Z,27.73
2019-05-21T22:46:34.906Z,25.17
2019-05-21T22:49:23.028Z,28.67
2019-05-21T22:52:10.665Z,25.37
2019-05-21T22:54:58.652Z,26.90
2019-05-21T22:57:46.487Z,26.93
2019-05-21T23:00:35.327Z,30.33
2019-05-21T23:03:23.385Z,28.90
2019-05-21T23:06:11.693Z,30.10
2019-05-21T23:08:59.702Z,27.67
2019-05-21T23:11:47.655Z,29.60
2019-05-21T23:14:35.581Z,30.83
2019-05-21T23:17:24.572Z,30.30
2019-05-21T23:20:14.046Z,26.80
2019-05-21T23:23:03.480Z,30.53
2019-05-21T23:25:51.380Z,33.50
2019-05-21T23:28:39.758Z,33.80
2019-05-21T23:31:27.788Z,31.50
2019-05-21T23:34:17.580Z,33.10
2019-05-21T23:37:07.456Z,36.40
2019-05-21T23:39:55.468Z,35.10
2019-05-21T23:42:43.230Z,37.07
2019-05-21T23:45:31.488Z,36.13
2019-05-21T23:48:19.388Z,35.73
2019-05-21T23:51:07.312Z,35.40
2019-05-21T23:53:55.157Z,34.53
2019-05-21T23:56:43.236Z,36.83
2019-05-21T23:59:31.517Z,36.97
